sensor_id;sensor_type;location;lat;lon;timestamp;temperature;humidity
35244;DHT22;37916;52.160;21.066;2022-11-04T00:03:51;5.20;87.70
35244;DHT22;37916;52.160;21.066;2022-11-04T00:13:52;5.20;87.60
35244;DHT22;37916;52.160;21.066;2022-11-04T00:23:53;5.20;87.50
35244;DHT22;37916;52.160;21.066;2022-11-04T00:34:12;5.20;87.50
35244;DHT22;37916;52.160;21.066;2022-11-04T00:44:13;5.20;87.80
35244;DHT22;37916;52.160;21.066;2022-11-04T00:54:13;5.20;87.70
35244;DHT22;37916;52.160;21.066;2022-11-04T01:04:14;5.10;87.70
35244;DHT22;37916;52.160;21.066;2022-11-04T01:14:15;5.20;88.00
35244;DHT22;37916;52.160;21.066;2022-11-04T01:24:15;5.30;87.90
35244;DHT22;37916;52.160;21.066;2022-11-04T01:34:16;5.40;87.30
35244;DHT22;37916;52.160;21.066;2022-11-04T01:54:44;5.60;87.00
35244;DHT22;37916;52.160;21.066;2022-11-04T02:04:45;5.90;86.50
35244;DHT22;37916;52.160;21.066;2022-11-04T02:14:47;6.10;86.10
35244;DHT22;37916;52.160;21.066;2022-11-04T02:25:03;6.20;86.10
35244;DHT22;37916;52.160;21.066;2022-11-04T02:35:07;6.30;86.00
35244;DHT22;37916;52.160;21.066;2022-11-04T02:45:35;6.40;85.90
35244;DHT22;37916;52.160;21.066;2022-11-04T02:55:41;6.30;85.80
35244;DHT22;37916;52.160;21.066;2022-11-04T03:05:46;6.30;85.90
35244;DHT22;37916;52.160;21.066;2022-11-04T03:15:52;6.40;85.90
35244;DHT22;37916;52.160;21.066;2022-11-04T03:26:11;6.60;85.60
35244;DHT22;37916;52.160;21.066;2022-11-04T03:36:13;6.70;85.40
35244;DHT22;37916;52.160;21.066;2022-11-04T03:46:21;6.70;85.40
35244;DHT22;37916;52.160;21.066;2022-11-04T04:07:43;6.90;85.10
35244;DHT22;37916;52.160;21.066;2022-11-04T04:17:57;7.00;84.90
35244;DHT22;37916;52.160;21.066;2022-11-04T04:28:00;7.00;85.60
35244;DHT22;37916;52.160;21.066;2022-11-04T04:38:03;7.10;85.80
35244;DHT22;37916;52.160;21.066;2022-11-04T04:48:24;7.10;85.30
35244;DHT22;37916;52.160;21.066;2022-11-04T04:58:25;7.30;85.30
35244;DHT22;37916;52.160;21.066;2022-11-04T05:08:25;7.30;85.20
35244;DHT22;37916;52.160;21.066;2022-11-04T05:18:27;7.30;85.00
35244;DHT22;37916;52.160;21.066;2022-11-04T05:28:28;7.10;86.20
35244;DHT22;37916;52.160;21.066;2022-11-04T05:38:30;7.10;86.30
35244;DHT22;37916;52.160;21.066;2022-11-04T05:48:36;7.20;85.90
35244;DHT22;37916;52.160;21.066;2022-11-04T05:59:12;7.30;86.10
35244;DHT22;37916;52.160;21.066;2022-11-04T06:09:18;7.30;85.80
35244;DHT22;37916;52.160;21.066;2022-11-04T06:19:20;7.40;85.00
35244;DHT22;37916;52.160;21.066;2022-11-04T06:39:31;7.70;84.90
35244;DHT22;37916;52.160;21.066;2022-11-04T06:49:35;7.80;84.40
35244;DHT22;37916;52.160;21.066;2022-11-04T06:59:44;8.00;83.60
35244;DHT22;37916;52.160;21.066;2022-11-04T07:09:51;8.30;82.60
35244;DHT22;37916;52.160;21.066;2022-11-04T07:19:56;8.40;82.40
35244;DHT22;37916;52.160;21.066;2022-11-04T07:30:08;8.60;81.90
35244;DHT22;37916;52.160;21.066;2022-11-04T07:40:12;8.90;81.40
35244;DHT22;37916;52.160;21.066;2022-11-04T07:50:18;9.10;80.40
35244;DHT22;37916;52.160;21.066;2022-11-04T08:00:24;9.20;80.80
35244;DHT22;37916;52.160;21.066;2022-11-04T08:10:32;9.40;79.10
35244;DHT22;37916;52.160;21.066;2022-11-04T08:20:39;9.50;78.70
35244;DHT22;37916;52.160;21.066;2022-11-04T08:30:58;9.60;78.50
35244;DHT22;37916;52.160;21.066;2022-11-04T08:41:04;9.60;78.00
35244;DHT22;37916;52.160;21.066;2022-11-04T08:51:10;9.90;77.90
35244;DHT22;37916;52.160;21.066;2022-11-04T09:01:16;9.90;77.30
35244;DHT22;37916;52.160;21.066;2022-11-04T09:11:25;10.00;76.20
35244;DHT22;37916;52.160;21.066;2022-11-04T09:21:27;10.20;75.60
35244;DHT22;37916;52.160;21.066;2022-11-04T09:31:34;10.20;75.00
35244;DHT22;37916;52.160;21.066;2022-11-04T09:52:07;10.30;76.30
35244;DHT22;37916;52.160;21.066;2022-11-04T10:02:33;10.20;76.10
35244;DHT22;37916;52.160;21.066;2022-11-04T10:33:39;10.80;74.80
35244;DHT22;37916;52.160;21.066;2022-11-04T10:43:42;11.10;73.50
35244;DHT22;37916;52.160;21.066;2022-11-04T10:53:43;11.10;73.50
35244;DHT22;37916;52.160;21.066;2022-11-04T11:03:46;11.90;72.50
35244;DHT22;37916;52.160;21.066;2022-11-04T11:13:47;12.10;70.60
35244;DHT22;37916;52.160;21.066;2022-11-04T11:23:48;12.50;69.00
35244;DHT22;37916;52.160;21.066;2022-11-04T11:33:59;13.00;67.40
35244;DHT22;37916;52.160;21.066;2022-11-04T11:44:31;12.90;66.10
35244;DHT22;37916;52.160;21.066;2022-11-04T11:54:38;12.70;66.50
35244;DHT22;37916;52.160;21.066;2022-11-04T12:04:43;12.60;66.40
35244;DHT22;37916;52.160;21.066;2022-11-04T12:14:57;12.90;66.80
35244;DHT22;37916;52.160;21.066;2022-11-04T12:56:05;13.00;64.80
35244;DHT22;37916;52.160;21.066;2022-11-04T13:16:44;12.80;64.10
35244;DHT22;37916;52.160;21.066;2022-11-04T13:26:46;12.70;64.40
35244;DHT22;37916;52.160;21.066;2022-11-04T13:57:59;12.50;64.30
35244;DHT22;37916;52.160;21.066;2022-11-04T14:18:01;12.10;66.50
35244;DHT22;37916;52.160;21.066;2022-11-04T14:38:28;11.70;68.10
35244;DHT22;37916;52.160;21.066;2022-11-04T14:48:29;11.50;68.90
35244;DHT22;37916;52.160;21.066;2022-11-04T14:58:58;11.30;69.60
35244;DHT22;37916;52.160;21.066;2022-11-04T15:09:19;11.20;70.40
35244;DHT22;37916;52.160;21.066;2022-11-04T15:19:27;11.20;70.80
35244;DHT22;37916;52.160;21.066;2022-11-04T15:29:32;11.10;71.30
35244;DHT22;37916;52.160;21.066;2022-11-04T15:39:38;11.10;72.40
35244;DHT22;37916;52.160;21.066;2022-11-04T15:49:40;11.00;73.00
35244;DHT22;37916;52.160;21.066;2022-11-04T16:09:53;11.00;74.10
35244;DHT22;37916;52.160;21.066;2022-11-04T16:19:57;10.90;74.40
35244;DHT22;37916;52.160;21.066;2022-11-04T16:30:19;10.90;74.90
35244;DHT22;37916;52.160;21.066;2022-11-04T16:40:21;10.90;75.40
35244;DHT22;37916;52.160;21.066;2022-11-04T16:50:22;10.80;75.50
35244;DHT22;37916;52.160;21.066;2022-11-04T17:00:34;10.80;75.70
35244;DHT22;37916;52.160;21.066;2022-11-04T17:10:38;10.80;75.80
35244;DHT22;37916;52.160;21.066;2022-11-04T17:20:51;10.80;75.90
35244;DHT22;37916;52.160;21.066;2022-11-04T17:41:18;10.70;76.20
35244;DHT22;37916;52.160;21.066;2022-11-04T17:51:40;10.60;76.40
35244;DHT22;37916;52.160;21.066;2022-11-04T18:02:08;10.60;76.60
35244;DHT22;37916;52.160;21.066;2022-11-04T18:22:19;10.50;76.90
35244;DHT22;37916;52.160;21.066;2022-11-04T18:42:30;10.50;77.10
35244;DHT22;37916;52.160;21.066;2022-11-04T18:52:33;10.40;77.00
35244;DHT22;37916;52.160;21.066;2022-11-04T19:02:33;10.40;77.10
35244;DHT22;37916;52.160;21.066;2022-11-04T19:23:36;10.40;77.00
35244;DHT22;37916;52.160;21.066;2022-11-04T19:33:48;10.40;76.90
35244;DHT22;37916;52.160;21.066;2022-11-04T19:44:03;10.40;77.00
35244;DHT22;37916;52.160;21.066;2022-11-04T20:05:41;10.30;77.20
35244;DHT22;37916;52.160;21.066;2022-11-04T20:15:45;10.20;77.30
35244;DHT22;37916;52.160;21.066;2022-11-04T20:25:46;10.10;77.50
35244;DHT22;37916;52.160;21.066;2022-11-04T21:59:11;9.90;78.80
35244;DHT22;37916;52.160;21.066;2022-11-04T22:09:17;9.90;79.00
35244;DHT22;37916;52.160;21.066;2022-11-04T22:19:38;9.90;79.00
35244;DHT22;37916;52.160;21.066;2022-11-04T22:29:50;9.90;79.00
35244;DHT22;37916;52.160;21.066;2022-11-04T22:40:22;9.90;79.10
35244;DHT22;37916;52.160;21.066;2022-11-04T22:50:28;9.90;78.90
35244;DHT22;37916;52.160;21.066;2022-11-04T23:21:51;9.90;78.70
35244;DHT22;37916;52.160;21.066;2022-11-04T23:32:40;10.00;78.70
35244;DHT22;37916;52.160;21.066;2022-11-04T23:42:46;9.90;78.60
35244;DHT22;37916;52.160;21.066;2022-11-04T23:52:55;10.00;78.50
